Time;durP1;ratioP1;P1;durP2;ratioP2;P2;SDS_P1;SDS_P2;PMS_P1;PMS_P2;Temp;Humidity;BMP_temperature;BMP_pressure;BME280_temperature;BME280_humidity;BME280_pressure;Samples;Min_cycle;Max_cycle;Signal;HPM_P1;HPM_P2
2022/08/04 00:00:42;;;;;;;1.37;1.27;;;;;;;;;;5094361;28;20212;-59
2022/08/04 00:03:39;;;;;;;1.10;1.00;;;;;;;;;;5096741;28;20299;-59
2022/08/04 00:06:40;;;;;;;1.20;1.10;;;;;;;;;;5093323;28;20236;-60
2022/08/04 00:09:32;;;;;;;1.30;1.20;;;;;;;;;;5098597;28;20204;-60
2022/08/04 00:12:24;;;;;;;2.20;1.03;;;;;;;;;;5096027;28;20232;-59
2022/08/04 00:15:15;;;;;;;1.10;1.10;;;;;;;;;;5096529;28;20232;-59
2022/08/04 00:18:07;;;;;;;1.20;1.10;;;;;;;;;;5094123;28;20212;-60
2022/08/04 00:20:59;;;;;;;1.37;1.20;;;;;;;;;;5097630;28;20208;-58
2022/08/04 00:23:47;;;;;;;0.87;0.87;;;;;;;;;;5096528;28;20207;-59
2022/08/04 00:26:34;;;;;;;1.27;1.10;;;;;;;;;;5093886;28;20302;-59
2022/08/04 00:29:22;;;;;;;1.10;1.10;;;;;;;;;;5096935;28;20224;-59
2022/08/04 00:32:09;;;;;;;1.30;1.20;;;;;;;;;;5095256;28;20233;-59
2022/08/04 00:34:57;;;;;;;1.90;1.40;;;;;;;;;;5095059;28;20246;-59
2022/08/04 00:37:47;;;;;;;0.90;0.90;;;;;;;;;;5099412;28;20212;-60
2022/08/04 00:40:47;;;;;;;1.13;0.87;;;;;;;;;;5093127;28;20313;-58
2022/08/04 00:43:42;;;;;;;0.90;0.90;;;;;;;;;;5095991;28;20220;-59
2022/08/04 00:46:46;;;;;;;1.00;0.90;;;;;;;;;;5096507;28;20670;-59
2022/08/04 00:49:51;;;;;;;0.80;0.80;;;;;;;;;;5101241;28;20208;-59
2022/08/04 00:52:59;;;;;;;1.20;1.10;;;;;;;;;;5103696;28;20699;-59
2022/08/04 00:56:04;;;;;;;1.20;1.10;;;;;;;;;;5097807;28;20208;-59
2022/08/04 00:58:59;;;;;;;1.30;1.20;;;;;;;;;;5101392;28;20337;-59
2022/08/04 01:01:56;;;;;;;1.27;0.80;;;;;;;;;;5098638;28;20253;-59
2022/08/04 01:04:50;;;;;;;1.30;1.10;;;;;;;;;;5101356;28;20241;-59
2022/08/04 01:08:08;;;;;;;1.43;1.20;;;;;;;;;;5099534;28;20669;-59
2022/08/04 01:11:03;;;;;;;1.33;1.00;;;;;;;;;;5100026;28;20211;-59
2022/08/04 01:14:28;;;;;;;1.13;1.03;;;;;;;;;;5100210;28;20246;-58
2022/08/04 01:17:20;;;;;;;1.27;1.17;;;;;;;;;;5079485;28;20208;-57
2022/08/04 01:20:09;;;;;;;1.00;0.87;;;;;;;;;;5096310;28;20194;-58
2022/08/04 01:23:46;;;;;;;1.70;1.17;;;;;;;;;;5102433;28;20266;-57
2022/08/04 01:26:57;;;;;;;1.13;1.10;;;;;;;;;;5096312;28;20595;-58
2022/08/04 01:29:49;;;;;;;1.17;1.07;;;;;;;;;;5100330;28;20212;-57
2022/08/04 01:32:38;;;;;;;0.87;0.87;;;;;;;;;;5099126;27;20257;-60
2022/08/04 01:35:29;;;;;;;1.10;1.00;;;;;;;;;;5099732;28;20355;-57
2022/08/04 01:38:24;;;;;;;0.77;0.70;;;;;;;;;;5098203;28;20285;-57
2022/08/04 01:41:14;;;;;;;1.33;1.07;;;;;;;;;;5102135;28;20730;-58
2022/08/04 01:44:03;;;;;;;1.00;1.00;;;;;;;;;;5100538;28;20204;-57
2022/08/04 01:46:52;;;;;;;1.27;1.00;;;;;;;;;;5100062;28;20236;-57
2022/08/04 01:49:42;;;;;;;1.00;1.00;;;;;;;;;;5104792;28;20214;-57
2022/08/04 01:52:29;;;;;;;1.33;1.07;;;;;;;;;;5099743;28;20239;-57
2022/08/04 01:55:17;;;;;;;0.87;0.87;;;;;;;;;;5107163;27;20581;-57
2022/08/04 01:58:05;;;;;;;1.07;1.07;;;;;;;;;;5096645;28;20252;-58
2022/08/04 02:01:01;;;;;;;1.17;1.10;;;;;;;;;;5097576;28;20264;-58
2022/08/04 02:03:49;;;;;;;1.17;1.17;;;;;;;;;;5093426;28;20212;-56
2022/08/04 02:06:49;;;;;;;1.03;1.00;;;;;;;;;;5096477;28;20224;-57
2022/08/04 02:09:43;;;;;;;3.23;1.13;;;;;;;;;;5097226;28;20668;-57
2022/08/04 02:12:48;;;;;;;1.00;0.93;;;;;;;;;;5099103;28;20240;-57
2022/08/04 02:15:47;;;;;;;1.43;1.20;;;;;;;;;;5102490;28;20699;-58
2022/08/04 02:18:57;;;;;;;1.10;0.90;;;;;;;;;;5099218;28;20309;-57
2022/08/04 02:21:48;;;;;;;1.93;1.00;;;;;;;;;;5094712;28;20198;-57
2022/08/04 02:24:45;;;;;;;1.37;1.00;;;;;;;;;;5100950;28;20212;-57
2022/08/04 02:27:54;;;;;;;1.63;0.70;;;;;;;;;;5102129;28;20216;-57
2022/08/04 02:30:50;;;;;;;0.87;0.87;;;;;;;;;;5101853;28;20681;-57
2022/08/04 02:33:40;;;;;;;1.00;1.00;;;;;;;;;;5100718;28;20211;-57
2022/08/04 02:36:32;;;;;;;0.70;0.70;;;;;;;;;;5097762;28;20253;-57
2022/08/04 02:39:20;;;;;;;0.80;0.80;;;;;;;;;;5100707;28;20617;-58
2022/08/04 02:42:07;;;;;;;0.90;0.90;;;;;;;;;;5098921;28;20210;-57
2022/08/04 02:44:57;;;;;;;1.00;1.00;;;;;;;;;;5100455;28;20199;-58
2022/08/04 02:47:47;;;;;;;0.87;0.87;;;;;;;;;;5097684;28;20223;-57
2022/08/04 02:50:35;;;;;;;1.00;1.00;;;;;;;;;;5101497;28;20204;-57
2022/08/04 02:53:26;;;;;;;0.83;0.83;;;;;;;;;;5096082;28;20717;-57
2022/08/04 02:56:18;;;;;;;0.87;0.77;;;;;;;;;;5096699;28;20273;-57
2022/08/04 02:59:06;;;;;;;1.00;1.00;;;;;;;;;;5095502;28;20610;-57
2022/08/04 03:01:56;;;;;;;0.80;0.80;;;;;;;;;;5099402;28;20214;-57
2022/08/04 03:04:55;;;;;;;1.00;1.00;;;;;;;;;;5091681;28;20217;-57
2022/08/04 03:08:04;;;;;;;1.63;1.30;;;;;;;;;;5101317;28;20294;-57
2022/08/04 03:11:37;;;;;;;0.90;0.90;;;;;;;;;;5103121;28;20273;-57
2022/08/04 03:15:15;;;;;;;1.70;1.27;;;;;;;;;;5100132;28;20204;-60
2022/08/04 03:18:37;;;;;;;0.83;0.83;;;;;;;;;;5016122;28;20200;-60
2022/08/04 03:21:48;;;;;;;1.77;1.00;;;;;;;;;;5016214;28;20285;-60
2022/08/04 03:25:12;;;;;;;0.93;0.93;;;;;;;;;;5094031;28;20665;-59
2022/08/04 03:28:21;;;;;;;0.83;0.83;;;;;;;;;;5096457;28;20233;-60
2022/08/04 03:31:47;;;;;;;0.90;0.90;;;;;;;;;;5103507;28;20219;-59
2022/08/04 03:34:46;;;;;;;0.73;0.73;;;;;;;;;;5099072;28;20216;-60
2022/08/04 03:37:55;;;;;;;1.30;0.93;;;;;;;;;;5098068;28;20692;-60
2022/08/04 03:41:06;;;;;;;1.00;1.00;;;;;;;;;;5098083;28;20218;-59
2022/08/04 03:44:13;;;;;;;0.80;0.80;;;;;;;;;;5097431;28;20614;-59
2022/08/04 03:47:25;;;;;;;0.90;0.90;;;;;;;;;;5100721;28;20214;-59
2022/08/04 03:53:07;;;;;;;0.80;0.80;;;;;;;;;;5097365;28;20211;-59
2022/08/04 03:54:31;;;;;;;1.30;1.20;;;;;;;;;;5095994;28;20205;-60
2022/08/04 03:58:08;;;;;;;1.00;0.90;;;;;;;;;;5068279;28;20222;-59
2022/08/04 04:01:06;;;;;;;0.80;0.80;;;;;;;;;;5016289;28;20222;-59
2022/08/04 04:04:08;;;;;;;1.10;1.00;;;;;;;;;;5015119;28;20202;-60
2022/08/04 04:07:43;;;;;;;0.90;0.90;;;;;;;;;;5097114;28;20227;-59
2022/08/04 04:10:46;;;;;;;0.90;0.90;;;;;;;;;;5001180;28;20210;-59
2022/08/04 04:14:04;;;;;;;1.07;1.07;;;;;;;;;;5101487;28;20300;-60
2022/08/04 04:17:08;;;;;;;0.80;0.80;;;;;;;;;;5101407;28;20253;-59
2022/08/04 04:20:19;;;;;;;0.93;0.93;;;;;;;;;;5097424;28;20281;-59
2022/08/04 04:23:21;;;;;;;1.10;1.10;;;;;;;;;;5102299;28;20679;-59
2022/08/04 04:26:30;;;;;;;0.80;0.80;;;;;;;;;;5108556;28;20230;-60
2022/08/04 04:29:29;;;;;;;1.07;1.00;;;;;;;;;;5099930;28;20239;-60
2022/08/04 04:32:32;;;;;;;0.93;0.93;;;;;;;;;;5099005;28;20311;-59
2022/08/04 04:35:28;;;;;;;1.10;1.00;;;;;;;;;;5101348;28;20197;-59
2022/08/04 04:38:44;;;;;;;1.97;0.97;;;;;;;;;;5102399;28;20208;-59
2022/08/04 04:41:57;;;;;;;1.07;1.07;;;;;;;;;;5097229;28;20294;-60
2022/08/04 04:45:22;;;;;;;0.83;0.77;;;;;;;;;;5100053;28;20204;-60
2022/08/04 04:48:19;;;;;;;0.73;0.73;;;;;;;;;;5097521;28;20196;-59
2022/08/04 04:51:14;;;;;;;0.90;0.90;;;;;;;;;;5102941;28;20297;-60
2022/08/04 04:54:06;;;;;;;1.03;1.03;;;;;;;;;;5100041;28;20255;-60
2022/08/04 04:57:05;;;;;;;0.60;0.60;;;;;;;;;;5102030;28;20224;-60
2022/08/04 04:59:59;;;;;;;0.80;0.80;;;;;;;;;;5098863;28;20200;-60
2022/08/04 05:03:11;;;;;;;0.67;0.60;;;;;;;;;;5101304;28;20198;-57
2022/08/04 05:06:21;;;;;;;0.70;0.70;;;;;;;;;;5100187;28;20247;-57
2022/08/04 05:09:27;;;;;;;1.13;0.80;;;;;;;;;;5099149;28;20208;-59
2022/08/04 05:12:33;;;;;;;1.00;1.00;;;;;;;;;;5100168;28;20311;-59
2022/08/04 05:15:27;;;;;;;0.87;0.87;;;;;;;;;;5097091;28;20246;-60
2022/08/04 05:18:19;;;;;;;0.80;0.80;;;;;;;;;;5099624;28;20683;-59
2022/08/04 05:21:22;;;;;;;1.00;1.00;;;;;;;;;;5096662;28;20206;-60
2022/08/04 05:24:12;;;;;;;1.03;1.00;;;;;;;;;;5098284;28;20210;-60
2022/08/04 05:27:04;;;;;;;1.00;1.00;;;;;;;;;;5099787;28;20234;-59
2022/08/04 05:29:54;;;;;;;1.80;0.90;;;;;;;;;;5106156;27;20214;-57
2022/08/04 05:32:47;;;;;;;1.00;0.90;;;;;;;;;;5097086;28;20220;-57
2022/08/04 05:35:41;;;;;;;0.93;0.93;;;;;;;;;;5102621;28;20621;-57
2022/08/04 05:38:33;;;;;;;0.93;0.93;;;;;;;;;;5101665;28;20208;-57
2022/08/04 05:41:22;;;;;;;1.00;1.00;;;;;;;;;;5104671;28;20693;-57
2022/08/04 05:44:10;;;;;;;0.93;0.93;;;;;;;;;;5098394;28;20280;-57
2022/08/04 05:46:58;;;;;;;0.70;0.70;;;;;;;;;;5104301;27;20207;-57
2022/08/04 05:49:45;;;;;;;1.52;0.90;;;;;;;;;;5099361;28;20220;-57
2022/08/04 05:52:34;;;;;;;1.08;1.00;;;;;;;;;;5097951;28;20221;-57
2022/08/04 05:55:24;;;;;;;1.10;1.00;;;;;;;;;;5100169;28;20221;-58
2022/08/04 05:58:12;;;;;;;2.55;0.80;;;;;;;;;;5093849;28;20205;-58
2022/08/04 06:01:01;;;;;;;1.35;0.90;;;;;;;;;;5096579;28;20208;-59
2022/08/04 06:03:49;;;;;;;1.67;0.88;;;;;;;;;;5097089;28;20213;-57
2022/08/04 06:06:37;;;;;;;0.90;0.90;;;;;;;;;;5101740;28;20225;-57
2022/08/04 06:09:24;;;;;;;1.33;1.20;;;;;;;;;;5100112;28;20210;-58
2022/08/04 06:12:17;;;;;;;0.90;0.90;;;;;;;;;;5095382;28;20205;-58
2022/08/04 06:15:06;;;;;;;0.98;0.90;;;;;;;;;;5096201;28;20210;-57
2022/08/04 06:17:57;;;;;;;0.95;0.95;;;;;;;;;;5099835;28;20212;-58
2022/08/04 06:20:47;;;;;;;0.95;0.93;;;;;;;;;;5093213;28;20212;-57
2022/08/04 06:23:37;;;;;;;0.85;0.85;;;;;;;;;;5098546;28;20198;-57
2022/08/04 06:26:25;;;;;;;1.00;1.00;;;;;;;;;;5095898;28;20756;-57
2022/08/04 06:29:23;;;;;;;1.15;1.08;;;;;;;;;;5102914;27;20238;-57
2022/08/04 06:32:26;;;;;;;1.10;1.10;;;;;;;;;;5094066;28;20331;-58
2022/08/04 06:35:16;;;;;;;1.27;1.20;;;;;;;;;;5102861;28;20194;-58
2022/08/04 06:38:05;;;;;;;1.05;1.05;;;;;;;;;;5101743;28;20630;-58
2022/08/04 06:40:53;;;;;;;1.10;1.10;;;;;;;;;;5103312;28;20205;-57
2022/08/04 06:43:40;;;;;;;1.23;1.23;;;;;;;;;;5098377;28;20234;-58
2022/08/04 06:46:29;;;;;;;1.25;1.15;;;;;;;;;;5092544;28;20202;-57
2022/08/04 06:49:18;;;;;;;1.13;1.02;;;;;;;;;;5098518;28;20210;-57
2022/08/04 06:52:06;;;;;;;1.42;1.20;;;;;;;;;;5098070;28;20247;-57
2022/08/04 06:54:54;;;;;;;1.70;1.40;;;;;;;;;;5099552;28;20283;-57
2022/08/04 06:57:43;;;;;;;1.15;1.05;;;;;;;;;;5095399;28;20576;-57
2022/08/04 07:00:31;;;;;;;1.15;1.15;;;;;;;;;;5097250;28;20203;-59
2022/08/04 07:03:20;;;;;;;1.15;1.15;;;;;;;;;;5102290;28;20351;-58
2022/08/04 07:06:07;;;;;;;1.35;1.25;;;;;;;;;;5100585;28;20229;-57
2022/08/04 07:08:55;;;;;;;1.02;0.98;;;;;;;;;;5102840;28;20270;-58
2022/08/04 07:11:42;;;;;;;1.00;1.00;;;;;;;;;;5097866;28;20217;-58
2022/08/04 07:14:31;;;;;;;1.08;1.08;;;;;;;;;;5095689;28;20259;-58
2022/08/04 07:17:19;;;;;;;1.40;1.30;;;;;;;;;;5101726;28;20597;-57
2022/08/04 07:20:09;;;;;;;2.15;1.33;;;;;;;;;;5105498;28;20209;-57
2022/08/04 07:22:58;;;;;;;0.95;0.95;;;;;;;;;;5098964;28;20208;-57
2022/08/04 07:25:51;;;;;;;1.42;1.30;;;;;;;;;;5096246;28;20229;-57
2022/08/04 07:28:39;;;;;;;1.50;1.40;;;;;;;;;;5113219;27;20288;-58
2022/08/04 07:31:27;;;;;;;1.98;1.42;;;;;;;;;;5113429;27;20204;-57
2022/08/04 07:34:14;;;;;;;1.15;1.15;;;;;;;;;;5114943;27;20823;-57
2022/08/04 07:37:03;;;;;;;1.17;1.17;;;;;;;;;;5112558;28;20254;-58
2022/08/04 07:39:50;;;;;;;1.42;1.35;;;;;;;;;;5118175;28;20209;-57
2022/08/04 07:42:37;;;;;;;1.00;1.00;;;;;;;;;;5113838;28;20213;-57
2022/08/04 07:45:25;;;;;;;1.15;1.15;;;;;;;;;;5118633;28;20212;-58
2022/08/04 07:48:14;;;;;;;1.08;1.08;;;;;;;;;;5119605;27;20209;-58
2022/08/04 07:51:01;;;;;;;1.00;1.00;;;;;;;;;;5120219;27;20354;-57
2022/08/04 07:53:50;;;;;;;1.10;1.10;;;;;;;;;;5119248;27;20223;-57
2022/08/04 07:56:41;;;;;;;1.33;1.23;;;;;;;;;;5125569;27;20208;-58
2022/08/04 07:59:28;;;;;;;1.10;1.10;;;;;;;;;;5119658;27;20208;-57
2022/08/04 08:02:15;;;;;;;0.90;0.90;;;;;;;;;;5125176;27;20210;-60
2022/08/04 08:05:03;;;;;;;1.08;0.95;;;;;;;;;;5120152;27;20196;-57
2022/08/04 08:07:51;;;;;;;1.20;1.20;;;;;;;;;;5120952;27;20254;-58
2022/08/04 08:10:45;;;;;;;1.00;1.00;;;;;;;;;;5121590;27;20284;-58
2022/08/04 08:13:33;;;;;;;0.93;0.93;;;;;;;;;;5122150;27;20241;-58
2022/08/04 08:16:22;;;;;;;0.90;0.90;;;;;;;;;;5125094;27;20201;-58
2022/08/04 08:19:10;;;;;;;1.30;1.20;;;;;;;;;;5120818;27;20617;-58
2022/08/04 08:21:57;;;;;;;1.13;1.10;;;;;;;;;;5127153;27;20208;-58
2022/08/04 08:24:44;;;;;;;1.15;1.15;;;;;;;;;;5119135;27;20193;-57
2022/08/04 08:27:33;;;;;;;2.33;1.10;;;;;;;;;;5118248;27;20209;-57
2022/08/04 08:30:20;;;;;;;1.10;1.10;;;;;;;;;;5114449;27;20193;-58
2022/08/04 08:33:15;;;;;;;1.02;1.02;;;;;;;;;;5122927;27;20200;-57
2022/08/04 08:36:07;;;;;;;1.20;1.10;;;;;;;;;;5116577;27;20237;-57
2022/08/04 08:39:01;;;;;;;1.88;1.00;;;;;;;;;;5121013;27;20578;-57
2022/08/04 08:42:14;;;;;;;0.80;0.80;;;;;;;;;;5118585;27;20260;-58
2022/08/04 08:45:33;;;;;;;1.50;1.40;;;;;;;;;;5124208;27;21101;-57
2022/08/04 08:48:44;;;;;;;1.88;0.98;;;;;;;;;;5120756;27;20210;-58
2022/08/04 08:51:52;;;;;;;1.13;1.13;;;;;;;;;;5121354;27;20205;-58
2022/08/04 08:55:00;;;;;;;0.88;0.88;;;;;;;;;;5114614;27;20223;-57
2022/08/04 08:58:03;;;;;;;0.80;0.80;;;;;;;;;;5117741;27;20246;-57
2022/08/04 09:01:00;;;;;;;0.80;0.80;;;;;;;;;;5122200;27;20654;-57
2022/08/04 09:04:16;;;;;;;1.08;1.00;;;;;;;;;;5121794;27;20402;-57
2022/08/04 09:07:20;;;;;;;1.00;1.00;;;;;;;;;;5096457;27;20234;-57
2022/08/04 09:10:15;;;;;;;1.17;1.00;;;;;;;;;;5118621;27;20205;-57
2022/08/04 09:13:05;;;;;;;0.80;0.80;;;;;;;;;;5122994;27;20260;-57
2022/08/04 09:15:59;;;;;;;1.38;0.98;;;;;;;;;;5120676;27;20607;-57
2022/08/04 09:18:54;;;;;;;1.08;0.98;;;;;;;;;;5123414;27;20212;-57
2022/08/04 09:21:47;;;;;;;1.40;1.40;;;;;;;;;;5120182;27;20205;-57
2022/08/04 09:24:53;;;;;;;1.27;1.15;;;;;;;;;;5123245;27;20509;-58
2022/08/04 09:27:47;;;;;;;1.00;1.00;;;;;;;;;;5120740;27;20665;-58
2022/08/04 09:30:48;;;;;;;0.90;0.90;;;;;;;;;;5118004;27;20210;-58
2022/08/04 09:33:46;;;;;;;1.05;1.00;;;;;;;;;;5121567;27;20234;-58
2022/08/04 09:36:40;;;;;;;1.02;0.80;;;;;;;;;;5119315;27;20691;-58
2022/08/04 09:39:34;;;;;;;1.88;1.23;;;;;;;;;;5119474;27;20210;-57
2022/08/04 09:42:35;;;;;;;1.00;1.00;;;;;;;;;;5117403;27;20201;-57
2022/08/04 09:45:29;;;;;;;1.02;1.02;;;;;;;;;;5122404;27;20552;-58
2022/08/04 09:48:22;;;;;;;0.88;0.88;;;;;;;;;;5121995;27;20695;-58
2022/08/04 09:51:20;;;;;;;1.05;1.00;;;;;;;;;;5117186;27;20286;-57
2022/08/04 09:54:14;;;;;;;0.82;0.82;;;;;;;;;;5120685;27;20220;-58
2022/08/04 09:57:11;;;;;;;0.95;0.90;;;;;;;;;;5120102;27;20217;-59
2022/08/04 10:00:02;;;;;;;0.77;0.77;;;;;;;;;;5123065;27;20302;-58
2022/08/04 10:02:54;;;;;;;1.30;1.20;;;;;;;;;;5113228;27;20210;-57
2022/08/04 10:05:52;;;;;;;0.90;0.90;;;;;;;;;;5119533;27;20221;-58
2022/08/04 10:09:00;;;;;;;1.00;0.85;;;;;;;;;;5118098;27;20280;-58
2022/08/04 10:11:59;;;;;;;1.02;1.02;;;;;;;;;;5122802;27;20213;-57
2022/08/04 10:14:52;;;;;;;1.05;1.05;;;;;;;;;;5116550;27;20581;-58
2022/08/04 10:18:04;;;;;;;0.90;0.90;;;;;;;;;;5110388;27;20206;-58
2022/08/04 10:21:04;;;;;;;1.80;1.20;;;;;;;;;;5116538;27;20344;-57
2022/08/04 10:24:14;;;;;;;0.98;0.85;;;;;;;;;;5114544;27;20194;-58
2022/08/04 10:27:05;;;;;;;1.10;0.90;;;;;;;;;;5101860;27;20238;-57
2022/08/04 10:29:57;;;;;;;0.95;0.95;;;;;;;;;;5095249;28;20284;-58
2022/08/04 10:32:49;;;;;;;1.67;0.90;;;;;;;;;;5100013;28;20288;-58
2022/08/04 10:35:45;;;;;;;1.15;1.15;;;;;;;;;;5098169;28;20600;-58
2022/08/04 10:38:39;;;;;;;0.82;0.82;;;;;;;;;;5096072;28;20210;-58
2022/08/04 10:41:34;;;;;;;0.80;0.80;;;;;;;;;;5097606;28;20210;-58
2022/08/04 10:44:34;;;;;;;0.77;0.77;;;;;;;;;;5096829;28;20693;-58
2022/08/04 10:47:27;;;;;;;1.15;1.15;;;;;;;;;;5102776;28;20640;-58
2022/08/04 10:50:15;;;;;;;1.48;1.30;;;;;;;;;;5094502;28;20575;-58
2022/08/04 10:53:07;;;;;;;1.10;1.10;;;;;;;;;;5100499;28;20351;-59
2022/08/04 10:55:59;;;;;;;0.90;0.90;;;;;;;;;;5103345;28;20590;-58
2022/08/04 10:58:53;;;;;;;1.27;1.10;;;;;;;;;;5093765;28;20577;-58
2022/08/04 11:01:45;;;;;;;1.10;1.00;;;;;;;;;;5097162;28;20205;-59
2022/08/04 11:04:38;;;;;;;1.20;1.10;;;;;;;;;;5099040;28;20337;-58
2022/08/04 11:07:30;;;;;;;0.93;0.93;;;;;;;;;;5105106;28;20202;-58
2022/08/04 11:10:21;;;;;;;1.08;1.05;;;;;;;;;;5094920;28;20666;-59
2022/08/04 11:13:13;;;;;;;1.10;1.10;;;;;;;;;;5099727;28;20206;-59
2022/08/04 11:16:06;;;;;;;1.00;1.00;;;;;;;;;;5097494;28;20229;-58
2022/08/04 11:19:04;;;;;;;1.50;1.10;;;;;;;;;;5096413;28;20226;-58
2022/08/04 11:21:55;;;;;;;0.93;0.90;;;;;;;;;;5095167;28;20210;-59
2022/08/04 11:24:50;;;;;;;1.42;1.33;;;;;;;;;;5096202;28;20646;-59
2022/08/04 11:27:43;;;;;;;2.17;1.55;;;;;;;;;;5095558;27;20244;-59
2022/08/04 11:30:35;;;;;;;1.05;0.90;;;;;;;;;;5098622;28;20280;-59
2022/08/04 11:33:31;;;;;;;2.33;1.50;;;;;;;;;;5094525;28;20206;-58
2022/08/04 11:36:24;;;;;;;1.58;1.30;;;;;;;;;;5103065;27;20398;-58
2022/08/04 11:39:15;;;;;;;1.10;1.00;;;;;;;;;;5100045;28;20209;-59
2022/08/04 11:42:10;;;;;;;1.85;1.17;;;;;;;;;;5092016;28;20206;-58
2022/08/04 11:45:03;;;;;;;1.25;1.20;;;;;;;;;;5096443;28;20203;-57
2022/08/04 11:47:59;;;;;;;3.17;1.27;;;;;;;;;;5102763;28;20680;-58
2022/08/04 11:50:52;;;;;;;1.88;1.52;;;;;;;;;;5095881;28;20571;-57
2022/08/04 11:53:41;;;;;;;2.03;1.20;;;;;;;;;;5095964;28;20205;-57
2022/08/04 11:56:28;;;;;;;1.77;1.30;;;;;;;;;;5094839;28;20503;-57
2022/08/04 11:59:15;;;;;;;1.23;1.13;;;;;;;;;;5097469;28;20202;-58
2022/08/04 12:02:26;;;;;;;1.23;1.05;;;;;;;;;;5092482;28;20206;-58
2022/08/04 12:05:13;;;;;;;1.20;1.10;;;;;;;;;;5096470;28;20230;-58
2022/08/04 12:08:11;;;;;;;1.35;1.25;;;;;;;;;;5096153;28;20233;-57
2022/08/04 12:11:09;;;;;;;1.38;1.25;;;;;;;;;;5095382;28;20511;-58
2022/08/04 12:14:04;;;;;;;3.60;1.25;;;;;;;;;;5101341;28;20281;-58
2022/08/04 12:16:58;;;;;;;1.17;1.17;;;;;;;;;;5105452;28;20610;-58
2022/08/04 12:19:56;;;;;;;1.20;1.10;;;;;;;;;;5099329;28;20209;-57
2022/08/04 12:22:47;;;;;;;1.63;1.52;;;;;;;;;;5101605;28;20209;-58
2022/08/04 12:25:41;;;;;;;1.48;1.20;;;;;;;;;;5089326;28;20199;-58
2022/08/04 12:28:32;;;;;;;2.05;1.20;;;;;;;;;;5098183;28;20292;-58
2022/08/04 12:31:25;;;;;;;1.33;1.10;;;;;;;;;;5093437;28;20237;-58
2022/08/04 12:34:16;;;;;;;1.15;1.10;;;;;;;;;;5099097;28;20232;-58
2022/08/04 12:37:09;;;;;;;1.50;1.40;;;;;;;;;;5097614;28;20348;-58
2022/08/04 12:40:01;;;;;;;1.25;1.10;;;;;;;;;;5095654;28;20218;-57
2022/08/04 12:42:57;;;;;;;1.58;1.48;;;;;;;;;;5097074;28;20233;-58
2022/08/04 12:45:51;;;;;;;1.20;1.10;;;;;;;;;;5089903;28;20369;-59
2022/08/04 12:48:40;;;;;;;1.05;0.95;;;;;;;;;;5101035;28;20678;-58
2022/08/04 12:51:31;;;;;;;1.70;1.42;;;;;;;;;;5097357;28;20198;-58
2022/08/04 12:54:25;;;;;;;1.83;1.30;;;;;;;;;;5098748;28;20219;-59
2022/08/04 12:57:16;;;;;;;1.77;1.40;;;;;;;;;;5100713;28;20198;-59
2022/08/04 13:00:07;;;;;;;1.60;1.33;;;;;;;;;;5102393;28;20435;-59
2022/08/04 13:02:59;;;;;;;2.15;1.60;;;;;;;;;;5095762;28;21222;-59
2022/08/04 13:05:53;;;;;;;1.67;1.42;;;;;;;;;;5102695;28;20217;-59
2022/08/04 13:08:46;;;;;;;1.25;1.15;;;;;;;;;;5096148;27;20199;-59
2022/08/04 13:11:43;;;;;;;1.30;1.17;;;;;;;;;;5101302;28;20585;-59
2022/08/04 13:14:38;;;;;;;1.38;1.27;;;;;;;;;;5099312;27;20229;-59
2022/08/04 13:17:46;;;;;;;1.70;1.23;;;;;;;;;;5098731;28;20209;-59
2022/08/04 13:20:38;;;;;;;1.50;1.40;;;;;;;;;;5103396;28;20217;-59
2022/08/04 13:23:27;;;;;;;1.20;1.10;;;;;;;;;;5102315;28;20792;-58
2022/08/04 13:26:20;;;;;;;1.45;1.25;;;;;;;;;;5096348;28;20713;-59
2022/08/04 13:29:08;;;;;;;1.13;1.02;;;;;;;;;;5096134;28;20226;-59
2022/08/04 13:31:56;;;;;;;1.77;1.27;;;;;;;;;;5096049;28;20232;-59
2022/08/04 13:34:47;;;;;;;1.00;1.00;;;;;;;;;;5095718;28;20229;-59
2022/08/04 13:37:37;;;;;;;1.52;1.10;;;;;;;;;;5097186;28;20237;-59
2022/08/04 13:40:26;;;;;;;0.95;0.95;;;;;;;;;;5094349;28;20190;-59
2022/08/04 13:43:23;;;;;;;1.75;1.40;;;;;;;;;;5093761;28;20213;-58
2022/08/04 13:46:15;;;;;;;1.52;1.42;;;;;;;;;;5097853;28;20199;-59
2022/08/04 13:49:07;;;;;;;1.25;1.25;;;;;;;;;;5097836;28;20214;-58
2022/08/04 13:51:59;;;;;;;1.30;1.20;;;;;;;;;;5094755;28;20206;-59
2022/08/04 13:54:47;;;;;;;1.20;1.10;;;;;;;;;;5097817;27;20226;-58
2022/08/04 13:57:42;;;;;;;1.10;1.10;;;;;;;;;;5095213;28;20199;-58
2022/08/04 14:00:45;;;;;;;1.77;1.23;;;;;;;;;;5098086;27;20209;-58
2022/08/04 14:03:38;;;;;;;1.42;1.33;;;;;;;;;;5094103;27;20210;-59
2022/08/04 14:06:33;;;;;;;1.30;1.20;;;;;;;;;;5095079;28;20605;-58
2022/08/04 14:09:31;;;;;;;1.10;1.02;;;;;;;;;;5095639;27;20206;-59
2022/08/04 14:12:19;;;;;;;1.10;1.10;;;;;;;;;;5092887;28;20206;-59
2022/08/04 14:15:07;;;;;;;1.25;0.90;;;;;;;;;;5096398;28;20222;-59
2022/08/04 14:17:54;;;;;;;1.50;1.40;;;;;;;;;;5092675;28;20291;-59
2022/08/04 14:20:58;;;;;;;2.38;1.40;;;;;;;;;;5098330;28;20310;-60
2022/08/04 14:23:49;;;;;;;2.03;1.38;;;;;;;;;;5098609;27;20227;-58
2022/08/04 14:26:37;;;;;;;1.58;1.20;;;;;;;;;;5112568;27;20237;-59
2022/08/04 14:29:24;;;;;;;1.13;1.02;;;;;;;;;;5122563;27;20318;-59
2022/08/04 14:32:11;;;;;;;1.73;1.25;;;;;;;;;;5116200;27;20224;-60
2022/08/04 14:34:58;;;;;;;1.27;1.02;;;;;;;;;;5115621;27;20225;-59
2022/08/04 14:37:53;;;;;;;1.38;1.25;;;;;;;;;;5120785;27;20214;-59
2022/08/04 14:40:42;;;;;;;1.13;1.13;;;;;;;;;;5120087;27;20331;-59
2022/08/04 14:43:30;;;;;;;1.25;1.15;;;;;;;;;;5115403;27;20869;-59
2022/08/04 14:46:17;;;;;;;1.30;1.25;;;;;;;;;;5119341;27;20197;-60
2022/08/04 14:49:07;;;;;;;1.10;1.05;;;;;;;;;;5118257;27;20213;-59
2022/08/04 14:51:57;;;;;;;1.40;1.30;;;;;;;;;;5114119;27;20208;-60
2022/08/04 14:54:44;;;;;;;2.13;1.08;;;;;;;;;;5112418;27;20289;-59
2022/08/04 14:57:36;;;;;;;1.00;1.00;;;;;;;;;;5117264;27;20691;-59
2022/08/04 15:00:27;;;;;;;1.63;1.17;;;;;;;;;;5115884;27;20591;-59
2022/08/04 15:03:14;;;;;;;1.40;1.20;;;;;;;;;;5116901;27;20255;-59
2022/08/04 15:06:02;;;;;;;1.00;1.00;;;;;;;;;;5121103;27;20225;-59
2022/08/04 15:08:50;;;;;;;1.27;0.85;;;;;;;;;;5116565;27;20207;-59
2022/08/04 15:11:38;;;;;;;1.35;1.27;;;;;;;;;;5117203;27;20715;-59
2022/08/04 15:14:25;;;;;;;2.90;1.15;;;;;;;;;;5117891;27;20245;-59
2022/08/04 15:17:14;;;;;;;1.27;1.17;;;;;;;;;;5121026;27;20197;-59
2022/08/04 15:20:02;;;;;;;1.45;1.20;;;;;;;;;;5121532;27;20614;-59
2022/08/04 15:22:49;;;;;;;1.42;1.08;;;;;;;;;;5118021;27;20217;-59
2022/08/04 15:25:39;;;;;;;1.08;1.05;;;;;;;;;;5118434;27;20209;-59
2022/08/04 15:28:29;;;;;;;1.13;1.10;;;;;;;;;;5095834;27;20290;-59
2022/08/04 15:31:17;;;;;;;1.05;1.05;;;;;;;;;;5097464;28;20658;-59
2022/08/04 15:34:07;;;;;;;1.33;1.20;;;;;;;;;;5099599;28;20254;-59
2022/08/04 15:36:58;;;;;;;1.17;1.02;;;;;;;;;;5095908;28;20233;-59
2022/08/04 15:39:50;;;;;;;0.90;0.90;;;;;;;;;;5098570;28;20566;-59
2022/08/04 15:42:44;;;;;;;0.90;0.90;;;;;;;;;;5097855;28;20198;-61
2022/08/04 15:45:47;;;;;;;1.00;1.00;;;;;;;;;;5100337;28;20213;-59
2022/08/04 15:48:35;;;;;;;1.30;1.25;;;;;;;;;;5093509;28;20209;-60
2022/08/04 15:51:26;;;;;;;1.20;1.10;;;;;;;;;;5098979;28;20343;-59
2022/08/04 15:54:22;;;;;;;0.88;0.88;;;;;;;;;;5101228;28;20257;-59
2022/08/04 15:57:10;;;;;;;1.30;1.20;;;;;;;;;;5096288;28;20221;-59
2022/08/04 16:00:06;;;;;;;1.17;1.08;;;;;;;;;;5095819;28;20210;-59
2022/08/04 16:02:54;;;;;;;1.45;1.20;;;;;;;;;;5098014;28;20333;-59
2022/08/04 16:05:41;;;;;;;2.33;0.98;;;;;;;;;;5093138;28;20260;-59
2022/08/04 16:08:29;;;;;;;0.93;0.93;;;;;;;;;;5098553;28;20210;-59
2022/08/04 16:11:40;;;;;;;1.45;1.10;;;;;;;;;;5110100;27;20332;-59
2022/08/04 16:14:35;;;;;;;0.93;0.93;;;;;;;;;;5100057;27;20654;-59
2022/08/04 16:17:24;;;;;;;1.20;1.20;;;;;;;;;;5093253;28;20226;-58
2022/08/04 16:20:13;;;;;;;1.23;1.13;;;;;;;;;;5099153;28;20336;-60
2022/08/04 16:23:07;;;;;;;0.95;0.95;;;;;;;;;;5103161;27;20289;-59
2022/08/04 16:25:55;;;;;;;0.90;0.90;;;;;;;;;;5102465;28;20228;-59
2022/08/04 16:28:43;;;;;;;0.90;0.90;;;;;;;;;;5104501;27;20255;-59
2022/08/04 16:31:33;;;;;;;0.80;0.75;;;;;;;;;;5110291;27;20264;-59
2022/08/04 16:34:20;;;;;;;1.10;1.00;;;;;;;;;;5105999;27;20213;-59
2022/08/04 16:37:08;;;;;;;2.03;1.10;;;;;;;;;;5101235;28;20297;-59
2022/08/04 16:40:32;;;;;;;0.90;0.90;;;;;;;;;;5101465;28;20206;-59
2022/08/04 16:43:23;;;;;;;1.05;0.98;;;;;;;;;;5019863;28;20713;-58
2022/08/04 16:46:10;;;;;;;1.00;1.00;;;;;;;;;;5021317;28;20205;-58
2022/08/04 16:49:06;;;;;;;0.98;0.98;;;;;;;;;;5090838;27;20283;-59
2022/08/04 16:51:53;;;;;;;1.20;1.13;;;;;;;;;;5111467;27;20210;-59
2022/08/04 16:54:40;;;;;;;0.90;0.90;;;;;;;;;;5101554;27;20242;-59
2022/08/04 16:57:27;;;;;;;0.93;0.93;;;;;;;;;;5104978;28;20223;-60
2022/08/04 17:00:16;;;;;;;0.82;0.82;;;;;;;;;;5097349;28;20213;-58
2022/08/04 17:03:04;;;;;;;0.93;0.93;;;;;;;;;;5101673;27;20209;-59
2022/08/04 17:06:05;;;;;;;1.08;1.08;;;;;;;;;;5097846;27;20218;-58
2022/08/04 17:08:52;;;;;;;1.00;1.00;;;;;;;;;;5106445;27;20205;-59
2022/08/04 17:11:40;;;;;;;1.10;1.10;;;;;;;;;;5101396;28;20291;-59
2022/08/04 17:14:29;;;;;;;1.00;1.00;;;;;;;;;;5098444;27;20211;-59
2022/08/04 17:17:23;;;;;;;1.00;0.90;;;;;;;;;;5098305;28;20865;-59
2022/08/04 17:20:10;;;;;;;0.85;0.82;;;;;;;;;;5103593;28;20216;-59
2022/08/04 17:23:24;;;;;;;0.93;0.93;;;;;;;;;;5099611;28;20206;-58
2022/08/04 17:26:13;;;;;;;1.13;1.00;;;;;;;;;;5113405;27;20229;-58
2022/08/04 17:29:00;;;;;;;1.10;1.10;;;;;;;;;;5126719;27;20279;-58